Time;durP1;ratioP1;P1;durP2;ratioP2;P2;SDS_P1;SDS_P2;PMS_P1;PMS_P2;Temp;Humidity;BMP_temperature;BMP_pressure;BME280_temperature;BME280_humidity;BME280_pressure;Samples;Min_cycle;Max_cycle;Signal;HPM_P1;HPM_P2
2022/11/14 07:39:58;;;;;;;11.20;6.47;;;4.10;99.90;;;;;;5137108;27;20273;-79
2022/11/14 07:42:28;;;;;;;11.57;7.40;;;4.20;99.90;;;;;;5135630;28;20266;-79
2022/11/14 07:44:54;;;;;;;16.83;10.50;;;4.40;99.90;;;;;;5137030;28;20198;-79
2022/11/14 07:47:19;;;;;;;9.33;6.80;;;4.60;99.90;;;;;;5136616;28;20413;-79
2022/11/14 07:49:45;;;;;;;9.67;6.37;;;4.80;99.90;;;;;;5135390;28;20179;-79
2022/11/14 07:52:10;;;;;;;7.37;5.70;;;5.20;99.90;;;;;;5133829;28;20269;-79
2022/11/14 07:54:37;;;;;;;6.27;5.13;;;5.80;99.90;;;;;;5135881;27;20194;-79
2022/11/14 07:57:02;;;;;;;8.40;5.50;;;6.50;99.90;;;;;;5134799;28;20182;-79
2022/11/14 07:59:28;;;;;;;7.30;5.40;;;7.10;99.90;;;;;;5132735;28;20199;-79
2022/11/14 08:01:54;;;;;;;27.97;18.33;;;7.70;99.90;;;;;;5132776;28;20209;-78
2022/11/14 08:04:19;;;;;;;6.07;4.67;;;8.50;99.90;;;;;;5135040;27;20262;-79
2022/11/14 08:06:45;;;;;;;7.23;4.33;;;9.60;99.90;;;;;;5135303;27;20201;-79
2022/11/14 08:09:10;;;;;;;7.57;3.93;;;10.40;99.90;;;;;;5137490;27;20518;-79
2022/11/14 08:11:48;;;;;;;5.17;3.20;;;10.90;99.90;;;;;;5136876;27;20174;-80
2022/11/14 08:14:15;;;;;;;4.83;3.00;;;11.30;99.90;;;;;;5135242;28;20243;-79
2022/11/14 08:16:41;;;;;;;4.43;3.00;;;11.70;99.90;;;;;;5134331;27;20636;-78
2022/11/14 08:19:06;;;;;;;4.77;3.47;;;11.50;99.90;;;;;;5133397;27;20194;-79
2022/11/14 08:21:32;;;;;;;4.53;3.67;;;11.30;99.90;;;;;;5132539;28;20538;-77
2022/11/14 08:23:58;;;;;;;5.53;4.10;;;11.50;99.90;;;;;;5133102;27;20198;-78
2022/11/14 08:26:23;;;;;;;7.47;4.40;;;11.50;99.90;;;;;;5132802;27;20199;-77
2022/11/14 08:28:53;;;;;;;5.67;4.47;;;11.70;99.90;;;;;;5131752;27;20175;-77
2022/11/14 08:31:19;;;;;;;6.53;3.77;;;12.10;99.90;;;;;;5132104;27;20164;-77
2022/11/14 08:33:46;;;;;;;6.50;3.33;;;12.50;99.90;;;;;;5130159;28;20535;-77
2022/11/14 08:36:11;;;;;;;3.50;3.07;;;12.80;99.90;;;;;;5131947;27;20194;-80
2022/11/14 08:38:37;;;;;;;3.63;3.07;;;13.30;99.90;;;;;;5131250;27;20217;-76
2022/11/14 08:41:03;;;;;;;7.00;2.77;;;13.70;99.90;;;;;;5132280;27;20179;-78
2022/11/14 08:43:32;;;;;;;5.50;2.63;;;13.90;99.90;;;;;;5131892;27;20180;-77
2022/11/14 08:45:59;;;;;;;3.50;2.53;;;14.00;99.90;;;;;;5131907;28;20560;-77
2022/11/14 08:48:25;;;;;;;7.03;2.77;;;13.90;99.90;;;;;;5130760;28;20194;-78
2022/11/14 08:50:51;;;;;;;4.93;2.73;;;13.90;99.90;;;;;;5120527;27;20217;-78
2022/11/14 08:53:16;;;;;;;3.37;2.80;;;14.00;99.90;;;;;;5117711;28;20632;-79
2022/11/14 08:55:46;;;;;;;3.60;2.70;;;13.90;99.90;;;;;;5117927;28;20201;-76
2022/11/14 08:58:12;;;;;;;2.50;2.30;;;13.50;99.90;;;;;;5117790;28;20642;-77
2022/11/14 09:00:37;;;;;;;2.53;2.33;;;13.60;99.90;;;;;;5118849;28;20188;-77
2022/11/14 09:03:08;;;;;;;2.90;2.50;;;13.60;99.90;;;;;;5118321;28;20226;-77
2022/11/14 09:05:34;;;;;;;5.37;2.83;;;13.00;99.90;;;;;;5120421;28;20196;-77
2022/11/14 09:07:59;;;;;;;5.53;3.10;;;12.40;99.90;;;;;;5121989;28;20203;-78
2022/11/14 09:10:25;;;;;;;12.47;3.43;;;11.70;99.90;;;;;;5120012;28;20634;-77
2022/11/14 09:12:55;;;;;;;6.03;3.00;;;11.30;99.90;;;;;;5118412;28;20178;-78
2022/11/14 09:15:21;;;;;;;3.43;2.77;;;10.80;99.90;;;;;;5117863;28;20190;-79
2022/11/14 09:17:47;;;;;;;5.70;3.27;;;10.50;99.90;;;;;;5116587;28;20227;-78
2022/11/14 09:20:13;;;;;;;6.23;3.33;;;10.30;99.90;;;;;;5118062;28;20174;-78
2022/11/14 09:22:38;;;;;;;11.93;5.07;;;10.20;99.90;;;;;;5117195;28;20204;-77
2022/11/14 09:25:05;;;;;;;12.87;8.60;;;10.10;99.90;;;;;;5118078;28;20195;-78
2022/11/14 09:27:30;;;;;;;8.40;6.47;;;10.10;99.90;;;;;;5117973;28;20255;-78
2022/11/14 09:29:56;;;;;;;10.53;6.20;;;10.30;99.90;;;;;;5116618;28;20234;-78
2022/11/14 09:32:22;;;;;;;8.90;5.10;;;10.70;99.90;;;;;;5118244;28;20216;-78
2022/11/14 09:34:47;;;;;;;9.40;5.97;;;10.70;99.90;;;;;;5117857;28;20194;-78
2022/11/14 09:37:13;;;;;;;5.67;4.70;;;11.00;99.90;;;;;;5117853;28;20176;-78
2022/11/14 09:39:39;;;;;;;6.97;5.20;;;11.10;99.90;;;;;;5117562;28;20557;-78
2022/11/14 09:42:18;;;;;;;5.97;4.20;;;11.10;99.90;;;;;;5117852;28;20239;-78
2022/11/14 09:44:47;;;;;;;9.67;7.87;;;11.40;99.90;;;;;;5117237;28;20222;-78
2022/11/14 09:47:20;;;;;;;7.63;6.60;;;11.50;99.90;;;;;;5117173;28;20168;-78
2022/11/14 09:49:48;;;;;;;6.90;6.03;;;12.00;99.90;;;;;;5116668;27;20206;-79
2022/11/14 09:52:45;;;;;;;7.53;5.50;;;12.10;99.90;;;;;;5115782;28;20770;-78
2022/11/14 09:55:22;;;;;;;7.67;4.57;;;12.80;99.90;;;;;;5115004;28;20582;-77
2022/11/14 09:57:47;;;;;;;4.17;3.23;;;13.60;99.90;;;;;;5116589;28;20155;-78
2022/11/14 10:00:15;;;;;;;4.40;3.30;;;14.30;99.90;;;;;;5116676;28;20172;-77
2022/11/14 10:03:06;;;;;;;3.13;2.60;;;14.80;99.90;;;;;;5116200;28;20169;-78
2022/11/14 10:06:08;;;;;;;3.43;2.20;;;15.00;99.90;;;;;;5115450;28;20210;-78
2022/11/14 10:08:55;;;;;;;3.00;2.07;;;15.10;99.90;;;;;;5105319;28;20213;-79
2022/11/14 10:11:22;;;;;;;5.70;2.90;;;15.40;99.90;;;;;;5117042;28;20193;-78
2022/11/14 10:14:07;;;;;;;6.33;2.70;;;15.30;99.90;;;;;;5116952;28;20677;-78
2022/11/14 10:17:10;;;;;;;3.67;2.93;;;15.10;99.90;;;;;;5117426;28;20197;-78
2022/11/14 10:19:56;;;;;;;3.43;2.50;;;15.60;99.90;;;;;;5117103;28;20171;-78
2022/11/14 10:22:49;;;;;;;8.80;5.67;;;15.20;99.90;;;;;;5116967;28;20626;-76
2022/11/14 10:25:23;;;;;;;5.43;3.50;;;15.00;99.90;;;;;;5114698;28;20202;-79
2022/11/14 10:28:20;;;;;;;4.47;2.80;;;14.80;99.90;;;;;;5115901;28;20198;-78
2022/11/14 10:31:01;;;;;;;5.60;3.07;;;14.90;99.90;;;;;;5108644;28;20216;-77
2022/11/14 10:33:45;;;;;;;4.73;3.33;;;15.40;99.90;;;;;;5116607;28;20152;-78
2022/11/14 10:36:17;;;;;;;8.60;5.60;;;15.70;99.90;;;;;;5116005;28;20522;-80
2022/11/14 10:38:51;;;;;;;6.03;4.00;;;16.20;99.90;;;;;;5116127;28;20191;-78
2022/11/14 10:41:17;;;;;;;4.93;2.53;;;17.00;99.90;;;;;;5116104;28;20206;-78
2022/11/14 10:43:46;;;;;;;3.97;2.60;;;17.40;99.90;;;;;;5116349;28;20585;-78
2022/11/14 10:46:25;;;;;;;2.40;1.90;;;17.50;99.90;;;;;;5116960;28;20204;-78
2022/11/14 10:48:51;;;;;;;5.43;2.00;;;17.70;99.90;;;;;;5117812;28;20724;-78
2022/11/14 10:51:24;;;;;;;3.27;1.80;;;18.00;99.90;;;;;;5117083;28;20522;-79
2022/11/14 10:54:05;;;;;;;6.30;2.70;;;18.30;99.90;;;;;;5116139;28;20176;-78
2022/11/14 10:56:31;;;;;;;2.53;2.33;;;18.60;99.90;;;;;;5116597;28;20153;-78
2022/11/14 10:58:57;;;;;;;3.63;2.33;;;18.70;99.90;;;;;;5115782;28;20224;-78
2022/11/14 11:01:39;;;;;;;1.73;1.63;;;18.70;99.90;;;;;;5115584;28;20179;-78
2022/11/14 11:04:26;;;;;;;4.00;2.10;;;18.30;99.90;;;;;;5118046;28;20202;-77
2022/11/14 11:12:52;;;;;;;2.80;2.60;;;18.20;99.90;;;;;;5117403;28;20589;-80
2022/11/14 11:15:17;;;;;;;4.87;2.30;;;18.20;99.90;;;;;;5118813;28;20280;-79
2022/11/14 11:18:05;;;;;;;2.27;2.07;;;18.20;99.90;;;;;;5117487;28;20218;-78
2022/11/14 11:20:34;;;;;;;2.43;2.23;;;18.60;99.90;;;;;;5116340;28;20180;-78
2022/11/14 11:23:06;;;;;;;2.77;2.57;;;18.70;99.90;;;;;;5117513;28;20532;-78
2022/11/14 11:25:33;;;;;;;3.17;2.80;;;19.10;99.90;;;;;;5116638;28;20226;-78
2022/11/14 11:28:19;;;;;;;7.40;6.10;;;19.00;99.90;;;;;;5116136;28;20221;-78
2022/11/14 11:31:02;;;;;;;2.40;1.93;;;17.80;99.90;;;;;;5116260;28;20173;-78
2022/11/14 11:33:38;;;;;;;11.27;7.07;;;16.50;99.90;;;;;;5117993;28;20171;-77
2022/11/14 11:36:09;;;;;;;3.00;2.70;;;15.90;99.90;;;;;;5120129;28;20174;-77
2022/11/14 11:38:35;;;;;;;2.00;1.80;;;15.40;99.90;;;;;;5120857;28;20223;-78
2022/11/14 11:41:30;;;;;;;2.03;1.60;;;15.00;99.90;;;;;;5118190;28;20675;-77
2022/11/14 11:44:03;;;;;;;2.37;1.40;;;14.60;99.90;;;;;;5114563;28;20201;-77
2022/11/14 11:46:44;;;;;;;1.83;1.70;;;14.30;99.90;;;;;;5115167;28;20262;-78
2022/11/14 11:49:26;;;;;;;1.77;1.67;;;14.00;99.90;;;;;;5114582;28;20191;-77
2022/11/14 11:51:54;;;;;;;1.70;1.50;;;13.70;99.90;;;;;;5116637;28;20174;-77
2022/11/14 11:54:34;;;;;;;2.33;1.70;;;13.60;99.90;;;;;;5118131;28;20188;-77
2022/11/14 11:57:06;;;;;;;1.50;1.40;;;13.50;99.90;;;;;;5122751;28;20158;-77
2022/11/14 11:59:45;;;;;;;1.63;1.50;;;13.40;99.90;;;;;;5123349;28;20159;-77
2022/11/14 12:02:25;;;;;;;1.40;1.30;;;13.10;99.90;;;;;;5115132;28;20163;-77
2022/11/14 12:04:54;;;;;;;3.17;2.00;;;13.00;99.90;;;;;;5114298;28;20255;-79
2022/11/14 12:07:24;;;;;;;2.10;1.30;;;12.90;99.90;;;;;;5115019;28;20199;-77
2022/11/14 12:09:52;;;;;;;3.93;2.03;;;12.80;99.90;;;;;;5114089;28;20200;-76
2022/11/14 12:12:35;;;;;;;2.53;1.63;;;12.70;99.90;;;;;;5115817;28;20170;-77
2022/11/14 12:15:13;;;;;;;2.37;1.50;;;12.70;99.90;;;;;;5116041;28;20188;-79
2022/11/14 12:18:32;;;;;;;1.27;1.13;;;12.70;99.90;;;;;;5115961;28;20253;-77
2022/11/14 12:21:06;;;;;;;1.83;1.30;;;12.80;99.90;;;;;;5073640;28;20636;-78
2022/11/14 12:23:51;;;;;;;1.37;1.20;;;12.90;99.90;;;;;;5056801;28;20178;-78
2022/11/14 12:26:28;;;;;;;1.80;1.40;;;13.00;99.90;;;;;;5109312;28;20642;-78
2022/11/14 12:29:18;;;;;;;1.47;1.10;;;13.10;99.90;;;;;;5119411;28;20545;-77
2022/11/14 12:31:45;;;;;;;1.47;1.37;;;13.20;99.90;;;;;;5119927;28;20216;-76
2022/11/14 12:34:23;;;;;;;2.23;1.50;;;13.20;99.90;;;;;;5119404;28;20187;-78
2022/11/14 12:36:49;;;;;;;1.70;1.50;;;13.20;99.90;;;;;;5118930;28;20205;-78
2022/11/14 12:39:28;;;;;;;3.37;1.70;;;13.10;99.90;;;;;;5124619;28;20187;-78
2022/11/14 12:42:02;;;;;;;2.77;1.40;;;13.20;99.90;;;;;;5123978;28;20246;-78
2022/11/14 12:44:28;;;;;;;2.23;1.23;;;13.30;99.90;;;;;;5119279;28;20269;-78
2022/11/14 12:47:06;;;;;;;2.70;1.60;;;13.30;99.90;;;;;;5118879;28;20221;-76
2022/11/14 12:49:56;;;;;;;2.67;2.03;;;13.50;99.90;;;;;;5119979;28;20192;-77
2022/11/14 12:52:44;;;;;;;2.10;1.30;;;13.50;99.90;;;;;;5118822;28;20213;-78
2022/11/14 12:55:25;;;;;;;1.90;1.47;;;13.50;99.90;;;;;;5119179;28;20192;-76
2022/11/14 12:57:53;;;;;;;1.73;1.63;;;13.40;99.90;;;;;;5118994;28;20164;-78
2022/11/14 13:00:19;;;;;;;2.93;1.53;;;13.30;99.90;;;;;;5117364;28;20350;-76
2022/11/14 13:03:06;;;;;;;4.60;1.80;;;13.20;99.90;;;;;;5118394;28;20204;-80
2022/11/14 13:05:48;;;;;;;2.10;1.50;;;13.10;99.90;;;;;;5119044;28;20192;-78
2022/11/14 13:08:38;;;;;;;1.30;1.20;;;13.10;99.90;;;;;;5118660;28;20281;-78
2022/11/14 13:23:25;;;;;;;2.87;1.90;;;13.20;99.90;;;;;;5117945;28;20187;-77
2022/11/14 13:26:09;;;;;;;4.10;2.77;;;13.30;99.90;;;;;;5117513;28;20277;-77
2022/11/14 13:28:53;;;;;;;3.67;1.87;;;13.50;99.90;;;;;;5118001;28;20191;-77
2022/11/14 13:31:21;;;;;;;9.67;2.77;;;13.50;99.90;;;;;;5117290;28;20532;-78
2022/11/14 13:33:52;;;;;;;5.27;2.23;;;13.40;99.90;;;;;;5117975;28;20245;-77
2022/11/14 13:36:30;;;;;;;3.40;1.80;;;13.30;99.90;;;;;;5118512;28;20168;-78
2022/11/14 13:39:10;;;;;;;3.90;2.67;;;13.30;99.90;;;;;;5119711;28;20232;-77
2022/11/14 13:41:51;;;;;;;2.80;1.93;;;13.20;99.90;;;;;;5120269;28;20648;-78
2022/11/14 13:44:42;;;;;;;2.40;2.00;;;13.00;99.90;;;;;;5116829;28;20195;-77
2022/11/14 13:47:08;;;;;;;3.30;1.50;;;13.00;99.90;;;;;;5118055;28;20206;-77
2022/11/14 13:49:42;;;;;;;1.83;1.63;;;12.90;99.90;;;;;;5117587;28;20187;-77
2022/11/14 13:52:12;;;;;;;2.20;1.87;;;12.80;99.90;;;;;;5117263;28;20178;-78
2022/11/14 13:54:47;;;;;;;2.43;1.70;;;12.70;99.90;;;;;;5117388;28;20191;-77
2022/11/14 13:57:32;;;;;;;1.87;1.60;;;12.60;99.90;;;;;;5116045;28;20171;-77
2022/11/14 14:00:06;;;;;;;3.57;2.00;;;12.60;99.90;;;;;;5117680;28;20167;-78
2022/11/14 14:02:44;;;;;;;6.00;2.60;;;12.60;99.90;;;;;;5117365;28;20242;-76
2022/11/14 14:05:46;;;;;;;4.70;3.23;;;12.50;99.90;;;;;;5116994;28;20202;-77
2022/11/14 14:08:39;;;;;;;4.63;2.80;;;12.50;99.90;;;;;;5117566;28;20183;-78
2022/11/14 14:11:25;;;;;;;6.80;3.23;;;12.50;99.90;;;;;;5117915;28;20152;-77
2022/11/14 14:14:09;;;;;;;5.80;2.87;;;12.40;99.90;;;;;;5117159;28;20159;-77
2022/11/14 14:16:49;;;;;;;26.80;3.53;;;12.30;99.90;;;;;;5116878;28;20164;-76
2022/11/14 14:19:45;;;;;;;13.10;2.73;;;12.20;99.90;;;;;;5116997;28;20197;-75
2022/11/14 14:22:36;;;;;;;60.43;43.47;;;12.20;99.90;;;;;;5115216;28;20179;-77
2022/11/14 14:25:08;;;;;;;8.93;3.93;;;12.10;99.90;;;;;;5116626;28;20191;-76
2022/11/14 14:28:00;;;;;;;6.43;2.20;;;12.00;99.90;;;;;;5116301;28;20167;-77
2022/11/14 14:30:26;;;;;;;12.73;3.27;;;12.00;99.90;;;;;;5116239;28;20641;-77
2022/11/14 14:33:11;;;;;;;5.00;2.30;;;11.90;99.90;;;;;;5115847;28;20164;-77
2022/11/14 14:35:41;;;;;;;6.10;2.80;;;11.90;99.90;;;;;;5115912;28;20577;-77
2022/11/14 14:38:23;;;;;;;3.63;2.00;;;11.80;99.90;;;;;;5115260;28;20191;-78
2022/11/14 14:40:48;;;;;;;3.57;1.60;;;11.80;99.90;;;;;;5118304;28;20647;-78
2022/11/14 14:43:24;;;;;;;3.13;1.80;;;11.80;99.90;;;;;;5118189;28;20183;-77
2022/11/14 14:45:54;;;;;;;2.33;1.70;;;11.70;99.90;;;;;;5119221;28;20199;-78
2022/11/14 14:48:29;;;;;;;3.70;2.00;;;11.70;99.90;;;;;;5118419;28;20199;-78
2022/11/14 14:50:57;;;;;;;3.03;2.23;;;11.70;99.90;;;;;;5118830;28;20161;-75
2022/11/14 14:53:28;;;;;;;7.37;2.27;;;11.70;99.90;;;;;;5117553;28;20170;-77
2022/11/14 14:56:18;;;;;;;3.47;2.20;;;11.60;99.90;;;;;;5115448;28;20244;-78
2022/11/14 14:58:44;;;;;;;4.53;3.37;;;11.50;99.90;;;;;;5116303;28;20179;-77
2022/11/14 15:01:36;;;;;;;6.87;3.10;;;11.40;99.90;;;;;;5114541;28;20179;-78
2022/11/14 15:04:05;;;;;;;5.17;4.10;;;11.40;99.90;;;;;;5114212;28;20215;-78
2022/11/14 15:06:35;;;;;;;5.20;3.40;;;11.40;99.90;;;;;;5115653;28;20210;-77
2022/11/14 15:09:12;;;;;;;12.67;4.67;;;11.40;99.90;;;;;;5115910;28;20551;-76
2022/11/14 15:11:41;;;;;;;8.77;5.23;;;11.40;99.90;;;;;;5116465;28;20155;-77
2022/11/14 15:14:14;;;;;;;12.67;4.37;;;11.40;99.90;;;;;;5115834;28;20196;-77
2022/11/14 15:16:40;;;;;;;11.67;6.27;;;11.40;99.90;;;;;;5115884;28;20161;-77
2022/11/14 15:19:11;;;;;;;11.73;5.57;;;11.40;99.90;;;;;;5115707;28;20629;-78
2022/11/14 15:21:37;;;;;;;7.03;3.63;;;11.30;99.90;;;;;;5116478;28;20167;-78
2022/11/14 15:24:14;;;;;;;5.00;2.60;;;11.30;99.90;;;;;;5116151;28;20191;-77
2022/11/14 15:26:45;;;;;;;3.60;2.50;;;11.30;99.90;;;;;;5114996;28;20171;-77
2022/11/14 15:29:25;;;;;;;3.70;2.10;;;11.20;99.90;;;;;;5115790;28;20183;-78
2022/11/14 15:31:53;;;;;;;13.83;6.90;;;11.10;99.90;;;;;;5116189;28;20637;-77
2022/11/14 15:34:31;;;;;;;14.80;6.70;;;11.00;99.90;;;;;;5115489;28;20199;-77
2022/11/14 15:37:09;;;;;;;12.93;5.87;;;11.00;99.90;;;;;;5117531;28;20160;-77
2022/11/14 15:39:36;;;;;;;9.93;4.50;;;10.90;99.90;;;;;;5115227;28;20194;-77
2022/11/14 15:42:37;;;;;;;8.63;4.57;;;10.80;99.90;;;;;;5116339;28;20213;-76
2022/11/14 15:45:20;;;;;;;14.53;6.83;;;10.70;99.90;;;;;;5073122;28;20203;-76
2022/11/14 15:47:49;;;;;;;58.90;32.60;;;10.60;99.90;;;;;;5112058;28;20250;-77
2022/11/14 15:50:14;;;;;;;16.80;10.13;;;10.50;99.90;;;;;;5115548;28;20217;-77
2022/11/14 15:52:48;;;;;;;16.87;9.47;;;10.40;99.90;;;;;;5115735;28;20171;-76
2022/11/14 15:55:16;;;;;;;18.63;8.43;;;10.20;99.90;;;;;;5115442;28;20183;-77
2022/11/14 15:57:42;;;;;;;12.93;8.57;;;10.10;99.90;;;;;;5115161;28;20656;-76
2022/11/14 16:00:14;;;;;;;15.23;8.40;;;10.00;99.90;;;;;;5116073;28;20167;-76
2022/11/14 16:02:46;;;;;;;13.63;9.43;;;9.90;99.90;;;;;;5118702;28;20652;-77
2022/11/14 16:05:14;;;;;;;14.23;6.77;;;9.80;99.90;;;;;;5120256;28;20194;-77
2022/11/14 16:07:40;;;;;;;14.10;7.77;;;9.80;99.90;;;;;;5122066;28;20176;-78
2022/11/14 16:10:17;;;;;;;17.10;10.47;;;9.70;99.90;;;;;;5121872;28;20195;-77
2022/11/14 16:12:42;;;;;;;27.90;14.50;;;9.70;99.90;;;;;;5122372;28;20158;-78
2022/11/14 16:15:09;;;;;;;19.80;11.00;;;9.60;99.90;;;;;;5117916;28;20249;-77
2022/11/14 16:17:40;;;;;;;47.60;21.47;;;9.50;99.90;;;;;;5119354;28;20533;-76
2022/11/14 16:20:15;;;;;;;54.77;26.83;;;9.30;99.90;;;;;;5118442;28;20162;-77
2022/11/14 16:22:41;;;;;;;61.50;30.50;;;9.20;99.90;;;;;;5118931;28;20163;-76
2022/11/14 16:25:17;;;;;;;42.97;23.33;;;9.20;99.90;;;;;;5119073;28;20191;-76
2022/11/14 16:27:44;;;;;;;47.17;25.60;;;9.10;99.90;;;;;;5118552;28;20564;-77
2022/11/14 16:30:12;;;;;;;80.23;41.40;;;9.00;99.90;;;;;;5118148;28;20197;-77
2022/11/14 16:32:39;;;;;;;25.37;17.73;;;8.90;99.90;;;;;;5119181;28;20180;-78
2022/11/14 16:35:11;;;;;;;25.70;15.47;;;8.80;99.90;;;;;;5121576;28;20182;-77
2022/11/14 16:37:36;;;;;;;20.73;11.60;;;8.80;99.90;;;;;;5130095;28;20172;-78
2022/11/14 16:40:02;;;;;;;23.27;11.53;;;8.70;99.90;;;;;;5117291;28;20170;-76
2022/11/14 16:42:28;;;;;;;20.33;12.50;;;8.60;99.90;;;;;;5119931;28;20216;-78
2022/11/14 16:44:59;;;;;;;21.93;13.47;;;8.50;99.90;;;;;;5120532;28;20276;-78
2022/11/14 16:47:25;;;;;;;47.47;25.73;;;8.40;99.90;;;;;;5119867;28;20172;-78
2022/11/14 16:49:50;;;;;;;41.63;22.53;;;8.40;99.90;;;;;;5119581;27;20198;-78
2022/11/14 16:52:16;;;;;;;23.27;15.43;;;8.30;99.90;;;;;;5119327;28;20176;-78
2022/11/14 16:54:42;;;;;;;25.60;15.00;;;8.20;99.90;;;;;;5119227;28;20272;-78
2022/11/14 16:57:07;;;;;;;28.20;15.30;;;8.10;99.90;;;;;;5119082;28;20197;-77
2022/11/14 16:59:33;;;;;;;20.50;12.43;;;8.10;99.90;;;;;;5117927;28;20600;-77
2022/11/14 17:01:58;;;;;;;20.50;11.00;;;8.00;99.90;;;;;;5119276;28;20207;-77
2022/11/14 17:04:24;;;;;;;18.70;13.47;;;7.90;99.90;;;;;;5118107;28;20200;-78
2022/11/14 17:06:50;;;;;;;25.33;15.07;;;7.90;99.90;;;;;;5118170;28;20590;-78
2022/11/14 17:09:15;;;;;;;21.07;12.83;;;7.90;99.90;;;;;;5119166;28;20259;-78
2022/11/14 17:11:43;;;;;;;21.47;13.80;;;7.80;99.90;;;;;;5121080;28;20175;-78
2022/11/14 17:14:09;;;;;;;19.57;12.90;;;7.80;99.90;;;;;;5122143;28;20184;-78
2022/11/14 17:16:35;;;;;;;19.30;12.80;;;7.80;99.90;;;;;;5122048;28;20634;-77
2022/11/14 17:19:00;;;;;;;33.97;21.40;;;7.70;99.90;;;;;;5121244;28;20236;-78
2022/11/14 17:21:26;;;;;;;22.60;15.63;;;7.70;99.90;;;;;;5121579;28;20168;-78
2022/11/14 17:23:56;;;;;;;13.73;9.30;;;7.70;99.90;;;;;;5121324;28;20661;-78
2022/11/14 17:26:23;;;;;;;17.67;9.10;;;7.70;99.90;;;;;;5123185;28;20194;-78
2022/11/14 17:28:48;;;;;;;18.27;12.77;;;7.60;99.90;;;;;;5119792;28;20196;-77
2022/11/14 17:31:15;;;;;;;15.73;8.73;;;7.60;99.90;;;;;;5119027;28;20504;-77
2022/11/14 17:33:41;;;;;;;16.47;10.07;;;7.60;99.90;;;;;;5121015;28;20166;-77
2022/11/14 17:36:08;;;;;;;17.73;10.90;;;7.60;99.90;;;;;;5117413;28;20169;-77
2022/11/14 17:38:36;;;;;;;15.33;10.23;;;7.70;99.90;;;;;;5117443;28;20198;-77
2022/11/14 17:41:04;;;;;;;19.33;11.30;;;7.70;99.90;;;;;;5118070;28;20180;-79
2022/11/14 17:43:34;;;;;;;11.50;8.47;;;7.70;99.90;;;;;;5117986;28;20197;-76
2022/11/14 17:46:01;;;;;;;12.50;8.80;;;7.60;99.90;;;;;;5117593;28;20204;-77
2022/11/14 17:48:27;;;;;;;18.40;8.60;;;7.60;99.90;;;;;;5117726;28;20737;-77
2022/11/14 17:50:53;;;;;;;16.37;10.17;;;7.60;99.90;;;;;;5117439;28;20276;-76
2022/11/14 17:53:19;;;;;;;18.10;11.03;;;7.50;99.90;;;;;;5117462;28;20183;-76
2022/11/14 17:55:45;;;;;;;13.80;9.17;;;7.50;99.90;;;;;;5117157;28;20612;-79
2022/11/14 17:58:11;;;;;;;18.07;11.00;;;7.40;99.90;;;;;;5117416;28;20535;-76
2022/11/14 18:00:37;;;;;;;14.07;9.27;;;7.50;99.90;;;;;;5117069;28;20212;-76
2022/11/14 18:03:03;;;;;;;12.20;8.30;;;7.50;99.90;;;;;;5117175;28;20173;-77
2022/11/14 18:05:29;;;;;;;11.57;7.90;;;7.50;99.90;;;;;;5116740;28;20199;-77
2022/11/14 18:07:55;;;;;;;16.07;10.00;;;7.40;99.90;;;;;;5117041;28;20555;-77
2022/11/14 18:10:20;;;;;;;15.10;11.67;;;7.40;99.90;;;;;;5117601;28;20167;-77
2022/11/14 18:12:46;;;;;;;27.93;14.70;;;7.40;99.90;;;;;;5116774;28;20176;-78
2022/11/14 18:15:13;;;;;;;16.93;11.00;;;7.30;99.90;;;;;;5115826;28;20218;-76
2022/11/14 18:17:40;;;;;;;15.30;10.00;;;7.20;99.90;;;;;;5116680;28;20569;-77
2022/11/14 18:20:06;;;;;;;13.80;9.07;;;7.10;99.90;;;;;;5116477;28;20273;-77
2022/11/14 18:22:32;;;;;;;11.37;7.73;;;7.00;99.90;;;;;;5115931;28;20175;-77
2022/11/14 18:24:59;;;;;;;11.90;8.03;;;6.90;99.90;;;;;;5116907;28;20270;-76
2022/11/14 18:27:25;;;;;;;22.50;12.10;;;6.80;99.90;;;;;;5116284;28;20165;-77
2022/11/14 18:29:50;;;;;;;9.63;7.47;;;6.80;99.90;;;;;;5116198;28;20280;-78
2022/11/14 18:32:16;;;;;;;10.00;7.60;;;6.80;99.90;;;;;;5115604;28;20194;-77
2022/11/14 18:34:42;;;;;;;11.87;7.57;;;6.70;99.90;;;;;;5116642;28;20209;-77
2022/11/14 18:37:08;;;;;;;9.40;7.27;;;6.70;99.90;;;;;;5116904;28;20705;-77
2022/11/14 18:39:33;;;;;;;11.63;7.50;;;6.70;99.90;;;;;;5117639;28;20223;-78
2022/11/14 18:42:00;;;;;;;11.53;6.93;;;6.70;99.90;;;;;;5117895;28;20233;-78
2022/11/14 18:44:29;;;;;;;8.63;5.77;;;6.70;99.90;;;;;;5117634;28;20192;-78
2022/11/14 18:46:54;;;;;;;10.03;6.93;;;6.70;99.90;;;;;;5117742;28;20532;-78
2022/11/14 18:49:20;;;;;;;12.73;9.47;;;6.70;99.90;;;;;;5117797;28;20201;-77
2022/11/14 18:51:46;;;;;;;23.03;14.90;;;6.70;99.90;;;;;;5121065;28;20231;-78
2022/11/14 18:54:15;;;;;;;52.07;30.07;;;6.60;99.90;;;;;;5122052;28;20184;-77
2022/11/14 18:56:40;;;;;;;55.43;30.20;;;6.60;99.90;;;;;;5121220;28;20175;-77
2022/11/14 18:59:06;;;;;;;54.53;28.33;;;6.50;99.90;;;;;;5120420;28;20167;-78
2022/11/14 19:01:33;;;;;;;56.17;28.50;;;6.50;99.90;;;;;;5120550;28;20172;-78
2022/11/14 19:04:01;;;;;;;54.03;27.50;;;6.50;99.90;;;;;;5120497;28;20187;-79
2022/11/14 19:06:29;;;;;;;62.97;33.73;;;6.40;99.90;;;;;;5121654;28;20178;-80
2022/11/14 19:09:00;;;;;;;27.37;18.20;;;6.40;99.90;;;;;;5121639;28;20542;-79
2022/11/14 19:14:10;;;;;;;7.77;6.53;;;6.40;99.90;;;;;;5121328;28;20218;-79
2022/11/14 19:16:37;;;;;;;10.53;8.00;;;6.40;99.90;;;;;;5120023;28;20634;-78
2022/11/14 19:19:04;;;;;;;7.10;6.13;;;6.40;99.90;;;;;;5119576;28;20172;-78
2022/11/14 19:21:30;;;;;;;6.27;4.83;;;6.50;99.90;;;;;;5118819;28;20228;-78
2022/11/14 19:23:58;;;;;;;7.50;5.83;;;6.60;99.90;;;;;;5118939;28;20202;-78
2022/11/14 19:26:25;;;;;;;7.43;5.57;;;6.70;99.90;;;;;;5118568;28;20171;-78
2022/11/14 19:28:50;;;;;;;8.53;5.67;;;6.70;99.90;;;;;;5128738;28;20203;-79
2022/11/14 19:31:18;;;;;;;9.77;6.70;;;6.70;99.90;;;;;;5120668;28;20239;-78
2022/11/14 19:33:44;;;;;;;8.23;6.30;;;6.70;99.90;;;;;;5122610;28;20175;-78
2022/11/14 19:36:16;;;;;;;7.23;6.10;;;6.70;99.90;;;;;;5121375;28;20168;-79
2022/11/14 19:38:42;;;;;;;7.10;6.10;;;6.60;99.90;;;;;;5119944;28;20684;-78
2022/11/14 19:41:13;;;;;;;12.20;7.20;;;6.60;99.90;;;;;;5120385;28;20194;-78
2022/11/14 19:43:41;;;;;;;11.07;7.53;;;6.40;99.90;;;;;;5120810;28;20204;-78
2022/11/14 19:46:07;;;;;;;10.43;7.40;;;6.40;99.90;;;;;;5121935;28;20183;-78
2022/11/14 19:48:33;;;;;;;12.07;6.73;;;6.40;99.90;;;;;;5119272;28;20196;-79
2022/11/14 19:51:00;;;;;;;10.33;7.07;;;6.20;99.90;;;;;;5120896;28;20175;-78
